AirNav   SIMCOM
 
 483 users online  

L36 Rio Linda Airport
Rio Linda, California, USA

GOING TO RIO LINDA?


FAA INFORMATION EFFECTIVE 09 NOVEMBER 2017

Location

FAA Identifier: L36
Lat/Long: 38-40-30.0000N / 121-26-43.6000W
38-40.500000N / 121-26.726667W
38.6750000 / -121.4454444
(estimated)
Elevation: 46 ft. / 14 m (estimated)
Variation: 16E (1985)
From city: 1 mile S of RIO LINDA, CA
Time zone: UTC -8 (UTC -7 during Daylight Saving Time)
Zip code: 95673

Airport Operations

Airport use: Open to the public
Activation date: 11/1963
Control tower: no
ARTCC: OAKLAND CENTER
FSS: RANCHO MURIETA FLIGHT SERVICE STATION
NOTAMs facility: RIU (NOTAM-D service available)
Attendance: 0800-1700
Pattern altitude: 846 ft. MSL
Wind indicator: lighted
Segmented circle: yes
Lights: ACTVT LIRL RY 17/35 KEY 122.9 SEVEN TIMES.
Beacon: white-green (lighted land airport)
DUSK-2400

Airport Communications

CTAF/UNICOM: 123.0
WX AWOS-3 at MCC (2.1 nm E): 125.975 (916-641-1272)
WX ASOS at SMF (7 nm W): PHONE 916-649-3996
WX AWOS-3 at MHR (10 nm SE): PHONE 916-366-3371
WX ASOS at SAC (10 nm S): PHONE 916-421-0923
WX AWOS-3 at LHM (15 nm N): 124.25 (916-645-0698)
WX AWOS-3 at EDU (18 nm SW): 119.025 (530-754-6839)

Nearby radio navigation aids

VOR radial/distance  VOR name  Freq  Var
MCCr266/2.0MC CLELLAN VOR/DME109.2017E
SACr003/14.7SACRAMENTO VORTAC115.2017E
MYVr151/26.1MARYSVILLE VOR/DME110.8016E
HNWr248/32.7HANGTOWN VOR/DME115.5017E
ILAr113/36.1WILLIAMS VORTAC114.4018E

Airport Services

Fuel available: 100LL
Parking: tiedowns
Airframe service: MINOR
Powerplant service: MINOR
Bottled oxygen: NONE
Bulk oxygen: NONE

Runway Information

Runway 17/35

Dimensions: 2625 x 42 ft. / 800 x 13 m
Surface: asphalt, in good condition
Weight bearing capacity: 
Single wheel: 12.0
Runway edge lights: low intensity
Runway edge markings: RWY 17 /35 NSTD CNTRLN SPACING & WIDTH.
RUNWAY 17  RUNWAY 35
Latitude: 38-40.715420N38-40.283940N
Longitude: 121-26.707750W121-26.745973W
Elevation: 46.0 ft.43.7 ft.
Traffic pattern: rightleft
Markings: NSTD, in good conditionNSTD, in good condition
Runway end identifier lights: nono
Obstructions: 60 ft. trees, 915 ft. from runway, 225 ft. right of centerline, 11:1 slope to clear20 ft. trees, 384 ft. from runway, 50 ft. left of centerline, 9:1 slope to clear

Airport Ownership and Management from official FAA records

Ownership: Privately-owned
Owner: WILLIAM T MAUSER
931 E STREET
RIO LINDA, CA 95673
Phone 916-991-1725
Manager: WILLIAM T MAUSER
931 E STREET
RIO LINDA, CA 95673
Phone 916-991-1725

Airport Operational Statistics

Aircraft based on the field: 139
Single engine airplanes: 136
Multi engine airplanes: 3
    
Aircraft operations: avg 82/day *
67% local general aviation
33% transient general aviation
* for 12-month period ending 31 December 2016

Additional Remarks

TOUCH AND GO LANDINGS NOT AUTHORIZED.
ULTRALIGHTS NOT AUTHORIZED.
FOR NOISE ABATEMENT RY 17 RIGHT TURN TO HDG 215 DEG AFT TKOF TO AVOID OVERFLIGHT OF SCHOOL.
TREE LINES EAST, WEST & NORTH OF ARPT - UNLIGHTED.
FOR CD CTC NORCAL APCH AT 916-361-6874.

Instrument Procedures

There are no published instrument procedures at L36.

Some nearby airports with instrument procedures:

KMCC - Mc Clellan Airfield (2 nm E)
KSMF - Sacramento International Airport (7 nm W)
KMHR - Sacramento Mather Airport (10 nm SE)
KSAC - Sacramento Executive Airport (10 nm S)
KLHM - Lincoln Regional Airport/Karl Harder Field (15 nm N)
KEDU - University Airport (18 nm SW)
O41 - Watts-Woodland Airport (20 nm W)
 
Loc | Ops | Rwys | IFR | FBO | Links
Com | Nav | Svcs | Stats | Notes


 
Area around L36 (Rio Linda Airport)
 
Road maps at: MapQuest Bing Google
 
Aerial photo
WARNING: Photo may not be current or correct
Aerial photo of L36 (Rio Linda Airport)
Photo by Morisette
Photo taken 27-May-2006

Do you have a better or more recent aerial photo of Rio Linda Airport that you would like to share? If so, please send us your photo.

 
Sectional chart

 
Airport distance calculator
Flying to Rio Linda Airport? Find the distance to fly.

From to L36

Sunrise and sunset
Times for 17-Nov-2017
 Local
(UTC-8)
 Zulu
(UTC)
Morning civil twilight06:2314:23
Sunrise06:5114:51
Sunset16:5000:50
Evening civil twilight17:1901:19

Current date and time
Zulu (UTC)  18-Nov-2017 06:54:26
Local (UTC-8)  17-Nov-2017 22:54:26
 
METAR
KMCC 
2nm E 
180630Z AUTO 33005KT 10SM FEW033 BKN047 07/04 A3021 RMK AO2
KSMF 
7nm W 
180553Z 33013KT 10SM CLR 09/04 A3019 RMK AO2 SLP222 T00940039 10144 20083 53003
KSAC 
11nm S 
180553Z AUTO 32009KT 10SM CLR 09/04 A3019 RMK AO2 SLP224 T00940044 10150 20094 53005
KMHR 
11nm SE 
180545Z 32005KT 10SM SKC 10/05 A3018
KLHM 
15nm N 
180635Z AUTO 36006KT 10SM CLR 05/03 A3019 RMK AO1
KEDU 
18nm SW 
180635Z AUTO 32006KT 10SM CLR 10/00 A3021 RMK AO1
TAF
KSMF 
7nm W 
180532Z 1806/1906 33006KT P6SM SKC FM181500 00000KT 5SM HZ SKC TEMPO 1815/1818 1SM MIFG SCT002 FM181900 VRB04KT P6SM FEW035
KSAC 
11nm S 
180532Z 1806/1906 32007KT P6SM SKC FM181300 00000KT 4SM BR FEW002 TEMPO 1813/1817 3/4SM MIFG BKN002 FM181900 VRB04KT P6SM FEW035
KMHR 
11nm SE 
180532Z 1806/1906 33005KT P6SM SKC FM181300 00000KT 4SM BR SKC TEMPO 1813/1817 1SM MIFG SCT002 FM181900 VRB04KT P6SM FEW035 AMD NOT SKED
NOTAMs
Click for the latest NOTAMs
NOTAMs are issued by the DoD/FAA and will open in a separate window not controlled by AirNav.

 

 
 

FBO, Fuel Providers, and Aircraft Ground Support

  
 Business Name 
 
 Contact 
 
 Services / Description 
 
Fuel Prices
 
Comments
  
Mauser Aviation 916-991-1725
no information available

If you are affiliated with Mauser Aviation and would like to show here your services, contact info, web link, logo, and more, click here
100LL
SS $4.50 
 Updated 16-Nov-2017
 
   write
SS=Self service
Update Fuel Prices
 

Would you like to see your business listed on this page?

 If your business provides an interesting product or service to pilots, flight crews, aircraft, or users of the Rio Linda Airport, you should consider listing it here.  To start the listing process, click on the button below
 
Add a business
 

Other Pages about Rio Linda Airport

Update a link
 
Copyright © AirNav, LLC. All rights reserved. Privacy Policy  Contact